Time;durP1;ratioP1;P1;durP2;ratioP2;P2;SDS_P1;SDS_P2;PMS_P1;PMS_P2;Temp;Humidity;BMP_temperature;BMP_pressure;BME280_temperature;BME280_humidity;BME280_pressure;Samples;Min_cycle;Max_cycle;Signal;HPM_P1;HPM_P2
2023/12/21 00:01:35;;;;;;;;;;;5.90;99.90;;;;;;5073736;28;19929;-79
2023/12/21 00:04:03;;;;;;;;;;;5.90;99.90;;;;;;5070822;28;19928;-79
2023/12/21 00:06:30;;;;;;;;;;;5.90;99.90;;;;;;5072424;28;19940;-82
2023/12/21 00:08:57;;;;;;;;;;;5.90;99.90;;;;;;5069679;28;19929;-79
2023/12/21 00:11:23;;;;;;;;;;;5.90;99.90;;;;;;5074127;28;19935;-78
2023/12/21 00:13:50;;;;;;;;;;;5.90;99.90;;;;;;5071514;28;19929;-78
2023/12/21 00:16:17;;;;;;;;;;;5.90;99.90;;;;;;5071658;28;20299;-78
2023/12/21 00:18:43;;;;;;;;;;;5.90;99.90;;;;;;5072045;28;19932;-77
2023/12/21 00:21:11;;;;;;;;;;;6.00;99.90;;;;;;5071375;28;19932;-78
2023/12/21 00:23:38;;;;;;;;;;;6.50;99.90;;;;;;5073643;28;19924;-78
2023/12/21 00:26:04;;;;;;;;;;;5.90;99.90;;;;;;5067493;28;19971;-78
2023/12/21 00:28:31;;;;;;;;;;;5.90;99.90;;;;;;5069398;28;19939;-78
2023/12/21 00:30:57;;;;;;;;;;;5.90;99.90;;;;;;5068284;28;19940;-78
2023/12/21 00:33:24;;;;;;;;;;;5.90;99.90;;;;;;5068348;28;19940;-77
2023/12/21 00:35:50;;;;;;;;;;;5.90;99.90;;;;;;5070051;28;19932;-77
2023/12/21 00:38:18;;;;;;;;;;;6.00;99.90;;;;;;5071442;28;19936;-77
2023/12/21 00:40:45;;;;;;;;;;;5.90;99.90;;;;;;5070498;28;19928;-77
2023/12/21 00:43:11;;;;;;;;;;;5.90;99.90;;;;;;5073997;28;20015;-77
2023/12/21 00:45:38;;;;;;;;;;;5.90;99.90;;;;;;5064386;28;19925;-78
2023/12/21 00:48:05;;;;;;;;;;;5.90;99.90;;;;;;5066283;28;19928;-78
2023/12/21 00:50:31;;;;;;;;;;;6.00;99.90;;;;;;5069667;28;19966;-78
2023/12/21 00:52:58;;;;;;;;;;;5.90;99.90;;;;;;5067857;28;20589;-78
2023/12/21 00:55:26;;;;;;;;;;;5.90;99.90;;;;;;5065672;28;20333;-80
2023/12/21 00:57:52;;;;;;;;;;;5.90;99.90;;;;;;5070854;28;19939;-79
2023/12/21 01:00:19;;;;;;;;;;;5.90;99.90;;;;;;5066450;28;19932;-78
2023/12/21 01:02:46;;;;;;;;;;;6.00;99.90;;;;;;5067344;28;19956;-78
2023/12/21 01:05:12;;;;;;;;;;;6.00;99.90;;;;;;5066171;28;19971;-80
2023/12/21 01:07:39;;;;;;;;;;;5.90;99.90;;;;;;5069561;28;19936;-77
2023/12/21 01:10:06;;;;;;;;;;;6.30;99.90;;;;;;5068225;28;19936;-80
2023/12/21 01:12:34;;;;;;;;;;;5.90;99.90;;;;;;5071146;28;19955;-77
2023/12/21 01:15:00;;;;;;;;;;;5.90;99.90;;;;;;5068574;28;19946;-77
2023/12/21 01:17:27;;;;;;;;;;;5.90;99.90;;;;;;5070007;28;19931;-79
2023/12/21 01:19:54;;;;;;;;;;;5.90;99.90;;;;;;5067054;28;19932;-78
2023/12/21 01:22:20;;;;;;;;;;;5.90;99.90;;;;;;5067550;28;19939;-78
2023/12/21 01:24:47;;;;;;;;;;;6.10;99.90;;;;;;5070793;28;19928;-77
2023/12/21 01:27:13;;;;;;;;;;;6.00;99.90;;;;;;5068583;28;19929;-81
2023/12/21 01:29:41;;;;;;;;;;;5.90;99.90;;;;;;5066438;28;20302;-79
2023/12/21 01:32:08;;;;;;;;;;;5.90;99.90;;;;;;5068743;28;19932;-79
2023/12/21 01:34:34;;;;;;;;;;;6.00;99.90;;;;;;5068080;28;19931;-78
2023/12/21 01:37:01;;;;;;;;;;;6.00;99.90;;;;;;5064881;28;19940;-77
2023/12/21 01:39:27;;;;;;;;;;;6.00;99.90;;;;;;5067326;28;19928;-80
2023/12/21 01:41:54;;;;;;;;;;;5.90;99.90;;;;;;5066973;28;19929;-79
2023/12/21 01:44:21;;;;;;;;;;;6.00;99.90;;;;;;5069040;28;19986;-78
2023/12/21 01:46:49;;;;;;;;;;;5.90;99.90;;;;;;5068598;28;19928;-79
2023/12/21 01:49:15;;;;;;;;;;;5.90;99.90;;;;;;5070420;28;19928;-78
2023/12/21 01:51:42;;;;;;;;;;;6.00;99.90;;;;;;5070385;28;19944;-78
2023/12/21 01:54:09;;;;;;;;;;;6.00;99.90;;;;;;5069740;28;19929;-80
2023/12/21 01:56:35;;;;;;;;;;;6.00;99.90;;;;;;5068746;28;19928;-78
2023/12/21 01:59:02;;;;;;;;;;;6.00;99.90;;;;;;5064875;28;19935;-78
2023/12/21 02:01:29;;;;;;;;;;;6.00;99.90;;;;;;5069927;28;19981;-78
2023/12/21 02:03:57;;;;;;;;;;;6.00;99.90;;;;;;5068694;28;19928;-78
2023/12/21 02:06:25;;;;;;;;;;;6.00;99.90;;;;;;5068640;28;20409;-78
2023/12/21 02:08:52;;;;;;;;;;;6.00;99.90;;;;;;5066573;28;19932;-81
2023/12/21 02:11:18;;;;;;;;;;;6.00;99.90;;;;;;5065704;28;19928;-78
2023/12/21 02:13:45;;;;;;;;;;;6.10;99.90;;;;;;5063638;28;19932;-78
2023/12/21 02:16:13;;;;;;;;;;;6.00;99.90;;;;;;5066486;28;19939;-78
2023/12/21 02:18:39;;;;;;;;;;;6.00;99.90;;;;;;5068525;28;19928;-78
2023/12/21 02:21:07;;;;;;;;;;;6.00;99.90;;;;;;5070257;28;19935;-78
2023/12/21 02:23:36;;;;;;;;;;;6.00;99.90;;;;;;5066755;28;19929;-79
2023/12/21 02:26:04;;;;;;;;;;;6.00;99.90;;;;;;5066175;28;19957;-79
2023/12/21 02:28:30;;;;;;;;;;;6.00;99.90;;;;;;5067142;28;19928;-79
2023/12/21 02:30:57;;;;;;;;;;;6.00;99.90;;;;;;5064535;28;19935;-79
2023/12/21 02:33:24;;;;;;;;;;;6.00;99.90;;;;;;5071519;28;19932;-78
2023/12/21 02:35:50;;;;;;;;;;;6.10;99.90;;;;;;5067069;28;19960;-79
2023/12/21 02:38:17;;;;;;;;;;;6.10;99.90;;;;;;5073262;28;19927;-79
2023/12/21 02:40:43;;;;;;;;;;;6.10;99.90;;;;;;5067059;28;19928;-79
2023/12/21 02:43:11;;;;;;;;;;;6.10;99.90;;;;;;5069785;28;20310;-78
2023/12/21 02:45:37;;;;;;;;;;;6.10;99.90;;;;;;5063415;28;20334;-79
2023/12/21 02:48:04;;;;;;;;;;;6.10;99.90;;;;;;5069059;28;19940;-79
2023/12/21 02:50:31;;;;;;;;;;;6.10;99.90;;;;;;5067000;28;20553;-78
2023/12/21 02:52:57;;;;;;;;;;;6.10;99.90;;;;;;5063683;28;20006;-78
2023/12/21 02:55:24;;;;;;;;;;;6.10;99.90;;;;;;5064730;28;19929;-78
2023/12/21 02:57:50;;;;;;;;;;;6.10;99.90;;;;;;5066804;28;19936;-80
2023/12/21 03:00:19;;;;;;;;;;;6.10;99.90;;;;;;5065054;28;19928;-81
2023/12/21 03:02:45;;;;;;;;;;;6.10;99.90;;;;;;5066070;28;19928;-79
2023/12/21 03:05:12;;;;;;;;;;;6.10;99.90;;;;;;5068558;28;19950;-79
2023/12/21 03:07:38;;;;;;;;;;;6.10;99.90;;;;;;5069630;28;19991;-80
2023/12/21 03:10:05;;;;;;;;;;;6.10;99.90;;;;;;5070440;28;19929;-78
2023/12/21 03:12:32;;;;;;;;;;;6.10;99.90;;;;;;5072704;28;19951;-78
2023/12/21 03:14:59;;;;;;;;;;;6.10;99.90;;;;;;5068638;28;19940;-80
2023/12/21 03:17:26;;;;;;;;;;;6.20;99.90;;;;;;5066026;28;20543;-79
2023/12/21 03:19:53;;;;;;;;;;;6.10;99.90;;;;;;5069160;28;20942;-79
2023/12/21 03:22:20;;;;;;;;;;;6.20;99.90;;;;;;5068608;28;19929;-80
2023/12/21 03:24:46;;;;;;;;;;;6.10;99.90;;;;;;5067730;28;19935;-78
2023/12/21 03:27:14;;;;;;;;;;;6.10;99.90;;;;;;5067833;28;19936;-79
2023/12/21 03:29:41;;;;;;;;;;;6.10;99.90;;;;;;5066198;28;19996;-78
2023/12/21 03:32:08;;;;;;;;;;;6.10;99.90;;;;;;5068214;28;20421;-78
2023/12/21 03:34:35;;;;;;;;;;;6.10;99.90;;;;;;5068827;28;19943;-78
2023/12/21 03:37:02;;;;;;;;;;;6.10;99.90;;;;;;5066640;28;20454;-80
2023/12/21 03:39:29;;;;;;;;;;;6.20;99.90;;;;;;5067972;28;19936;-79
2023/12/21 03:41:56;;;;;;;;;;;6.10;99.90;;;;;;5068598;28;19982;-79
2023/12/21 03:44:23;;;;;;;;;;;6.20;99.90;;;;;;5068437;28;19928;-78
2023/12/21 03:46:49;;;;;;;;;;;6.20;99.90;;;;;;5067902;28;19929;-79
2023/12/21 03:49:16;;;;;;;;;;;6.20;99.90;;;;;;5068917;28;20002;-79
2023/12/21 03:51:44;;;;;;;;;;;6.20;99.90;;;;;;5067157;28;19929;-79
2023/12/21 03:54:10;;;;;;;;;;;6.20;99.90;;;;;;5068191;28;20641;-80
2023/12/21 03:56:38;;;;;;;;;;;6.20;99.90;;;;;;5069645;28;19929;-78
2023/12/21 03:59:04;;;;;;;;;;;6.20;99.90;;;;;;5067725;28;19935;-79
2023/12/21 04:01:31;;;;;;;;;;;6.20;99.90;;;;;;5070028;28;19928;-81
2023/12/21 04:03:57;;;;;;;;;;;6.20;99.90;;;;;;5070759;28;20436;-80
2023/12/21 04:06:24;;;;;;;;;;;6.20;99.90;;;;;;5069399;28;19936;-79
2023/12/21 04:08:54;;;;;;;;;;;6.20;99.90;;;;;;5069660;28;19928;-79
2023/12/21 04:11:20;;;;;;;;;;;6.20;99.90;;;;;;5068221;28;20036;-79
2023/12/21 04:13:47;;;;;;;;;;;6.20;99.90;;;;;;5068288;28;19935;-81
2023/12/21 04:16:13;;;;;;;;;;;6.20;99.90;;;;;;5068307;28;19933;-80
2023/12/21 04:18:40;;;;;;;;;;;6.20;99.90;;;;;;5070186;28;19935;-80
2023/12/21 04:21:07;;;;;;;;;;;6.20;99.90;;;;;;5067224;28;19932;-78
2023/12/21 04:23:33;;;;;;;;;;;6.20;99.90;;;;;;5069076;28;20337;-79
2023/12/21 04:26:01;;;;;;;;;;;6.20;99.90;;;;;;5072871;28;20398;-79
2023/12/21 04:28:28;;;;;;;;;;;6.30;99.90;;;;;;5072849;28;19928;-78
2023/12/21 04:30:54;;;;;;;;;;;6.30;99.90;;;;;;5067724;28;19935;-80
2023/12/21 04:33:21;;;;;;;;;;;6.20;99.90;;;;;;5070269;28;19967;-81
2023/12/21 04:35:47;;;;;;;;;;;6.30;99.90;;;;;;5069809;28;19935;-78
2023/12/21 04:38:14;;;;;;;;;;;6.30;99.90;;;;;;5073659;28;19988;-79
2023/12/21 04:40:41;;;;;;;;;;;6.30;99.90;;;;;;5070994;28;19928;-82
2023/12/21 04:43:08;;;;;;;;;;;6.20;99.90;;;;;;5071674;28;19936;-79
2023/12/21 04:45:35;;;;;;;;;;;6.30;99.90;;;;;;5067348;28;19928;-78
2023/12/21 04:48:02;;;;;;;;;;;6.30;99.90;;;;;;5070252;28;19964;-78
2023/12/21 04:50:29;;;;;;;;;;;6.30;99.90;;;;;;5068856;28;19929;-80
2023/12/21 04:52:56;;;;;;;;;;;6.30;99.90;;;;;;5068331;28;19928;-79
2023/12/21 04:55:22;;;;;;;;;;;6.30;99.90;;;;;;5070141;28;19932;-79
2023/12/21 04:57:49;;;;;;;;;;;6.30;99.90;;;;;;5069781;28;19935;-77
2023/12/21 05:00:17;;;;;;;;;;;6.30;99.90;;;;;;5071161;28;19932;-81
2023/12/21 05:02:44;;;;;;;;;;;6.30;99.90;;;;;;5066815;28;19981;-80
2023/12/21 05:05:10;;;;;;;;;;;6.30;99.90;;;;;;5072960;28;19928;-76
2023/12/21 05:07:37;;;;;;;;;;;6.30;99.90;;;;;;5074477;28;19928;-78
2023/12/21 05:10:05;;;;;;;;;;;6.30;99.90;;;;;;5065154;28;19989;-78
2023/12/21 05:12:31;;;;;;;;;;;6.30;99.90;;;;;;5070040;28;19971;-79
2023/12/21 05:14:58;;;;;;;;;;;6.40;99.90;;;;;;5064001;28;19932;-79
2023/12/21 05:17:26;;;;;;;;;;;6.30;99.90;;;;;;5070740;28;19935;-78
2023/12/21 05:19:53;;;;;;;;;;;6.30;99.90;;;;;;5067865;28;19939;-78
2023/12/21 05:22:19;;;;;;;;;;;6.30;99.90;;;;;;5068374;28;19924;-79
2023/12/21 05:24:46;;;;;;;;;;;6.30;99.90;;;;;;5068325;28;19932;-78
2023/12/21 05:27:12;;;;;;;;;;;6.30;99.90;;;;;;5069313;28;19924;-80
2023/12/21 05:29:40;;;;;;;;;;;6.40;99.90;;;;;;5067653;28;20385;-80
2023/12/21 05:32:07;;;;;;;;;;;6.30;99.90;;;;;;5069254;28;19932;-79
2023/12/21 05:34:35;;;;;;;;;;;6.30;99.90;;;;;;5069209;28;19951;-78
2023/12/21 05:37:02;;;;;;;;;;;6.30;99.90;;;;;;5066615;28;19924;-78
2023/12/21 05:39:28;;;;;;;;;;;6.30;99.90;;;;;;5068123;28;19939;-79
2023/12/21 05:41:55;;;;;;;;;;;6.40;99.90;;;;;;5075825;28;19952;-79
2023/12/21 05:44:21;;;;;;;;;;;6.40;99.90;;;;;;5070942;28;19928;-79
2023/12/21 05:46:48;;;;;;;;;;;6.40;99.90;;;;;;5070444;28;19932;-80
2023/12/21 05:49:14;;;;;;;;;;;6.40;99.90;;;;;;5070643;28;19947;-79
2023/12/21 05:51:42;;;;;;;;;;;6.30;99.90;;;;;;5070836;28;19928;-78
2023/12/21 05:54:09;;;;;;;;;;;6.40;99.90;;;;;;5069725;28;19924;-79
2023/12/21 05:56:35;;;;;;;;;;;6.40;99.90;;;;;;5070466;28;19928;-79
2023/12/21 05:59:02;;;;;;;;;;;6.40;99.90;;;;;;5071793;28;19929;-78
2023/12/21 06:01:28;;;;;;;;;;;6.40;99.90;;;;;;5072199;28;19935;-81
2023/12/21 06:03:55;;;;;;;;;;;6.40;99.90;;;;;;5073566;28;19924;-80
2023/12/21 06:06:22;;;;;;;;;;;6.40;99.90;;;;;;5068055;28;19928;-79
2023/12/21 06:08:49;;;;;;;;;;;6.40;99.90;;;;;;5068165;28;19928;-78
2023/12/21 06:11:16;;;;;;;;;;;6.40;99.90;;;;;;5068721;28;19928;-79
2023/12/21 06:13:43;;;;;;;;;;;6.40;99.90;;;;;;5069636;28;19936;-80
2023/12/21 06:16:11;;;;;;;;;;;6.40;99.90;;;;;;5069613;28;19929;-81
2023/12/21 06:18:38;;;;;;;;;;;6.40;99.90;;;;;;5063661;28;19935;-80
2023/12/21 06:21:05;;;;;;;;;;;6.40;99.90;;;;;;5068627;28;19928;-79
2023/12/21 06:23:31;;;;;;;;;;;6.40;99.90;;;;;;5070612;28;19936;-78
2023/12/21 06:25:59;;;;;;;;;;;6.40;99.90;;;;;;5067411;28;19939;-80
2023/12/21 06:28:26;;;;;;;;;;;6.40;99.90;;;;;;5066261;28;19935;-80
2023/12/21 06:30:52;;;;;;;;;;;6.40;99.90;;;;;;5067204;28;20298;-79
2023/12/21 06:33:19;;;;;;;;;;;6.50;99.90;;;;;;5070469;28;19982;-79
2023/12/21 06:35:45;;;;;;;;;;;6.40;99.90;;;;;;5067662;28;19939;-80
2023/12/21 06:38:12;;;;;;;;;;;6.40;99.90;;;;;;5071519;28;19928;-78
2023/12/21 06:40:38;;;;;;;;;;;6.40;99.90;;;;;;5067509;28;19971;-79
2023/12/21 06:43:06;;;;;;;;;;;6.40;99.90;;;;;;5067709;28;19933;-76
2023/12/21 06:45:33;;;;;;;;;;;6.40;99.90;;;;;;5070211;28;19928;-67
2023/12/21 06:48:00;;;;;;;;;;;6.40;99.90;;;;;;5067059;28;19932;-66
2023/12/21 06:50:26;;;;;;;;;;;6.50;99.90;;;;;;5071531;28;20013;-66
2023/12/21 06:52:53;;;;;;;;;;;6.50;99.90;;;;;;5069977;28;20417;-68
2023/12/21 06:55:19;;;;;;;;;;;6.50;99.90;;;;;;5070334;28;19928;-67
2023/12/21 06:57:46;;;;;;;;;;;6.50;99.90;;;;;;5067099;28;20013;-66
2023/12/21 07:00:14;;;;;;;;;;;6.50;99.90;;;;;;5068522;28;19959;-66
2023/12/21 07:02:41;;;;;;;;;;;6.50;99.90;;;;;;5065254;28;19928;-66
2023/12/21 07:05:08;;;;;;;;;;;6.50;99.90;;;;;;5072210;28;19983;-67
2023/12/21 07:07:34;;;;;;;;;;;6.50;99.90;;;;;;5069914;28;20513;-66
2023/12/21 07:10:01;;;;;;;;;;;6.50;99.90;;;;;;5068852;28;19928;-67
2023/12/21 07:12:29;;;;;;;;;;;6.50;99.90;;;;;;5066866;28;22401;-66
2023/12/21 07:14:55;;;;;;;;;;;6.50;99.90;;;;;;5064975;28;19929;-67
2023/12/21 07:17:23;;;;;;;;;;;6.50;99.90;;;;;;5072663;28;19934;-68
2023/12/21 07:19:50;;;;;;;;;;;6.50;99.90;;;;;;5064510;28;19933;-67
2023/12/21 07:22:16;;;;;;;;;;;6.50;99.90;;;;;;5071368;28;19928;-67
2023/12/21 07:24:43;;;;;;;;;;;6.50;99.90;;;;;;5065184;28;19964;-66
2023/12/21 07:27:09;;;;;;;;;;;6.50;99.90;;;;;;5068814;28;19936;-67
2023/12/21 07:29:36;;;;;;;;;;;6.50;99.90;;;;;;5067118;28;20435;-67
2023/12/21 07:32:03;;;;;;;;;;;6.60;99.90;;;;;;5066961;28;19932;-67
2023/12/21 07:34:31;;;;;;;;;;;6.50;99.90;;;;;;5070303;28;20698;-67
2023/12/21 07:36:57;;;;;;;;;;;6.60;99.90;;;;;;5065831;28;19924;-67
2023/12/21 07:39:24;;;;;;;;;;;6.60;99.90;;;;;;5065443;28;19932;-66
2023/12/21 07:41:50;;;;;;;;;;;6.60;99.90;;;;;;5066527;28;19928;-78
2023/12/21 07:44:17;;;;;;;;;;;6.60;99.90;;;;;;5068831;28;19939;-79
2023/12/21 07:46:43;;;;;;;;;;;6.60;99.90;;;;;;5066321;28;19999;-79
2023/12/21 07:49:10;;;;;;;;;;;6.60;99.90;;;;;;5066008;28;19935;-79
2023/12/21 07:51:38;;;;;;;;;;;6.60;99.90;;;;;;5065985;28;19929;-78
2023/12/21 07:54:04;;;;;;;;;;;6.60;99.90;;;;;;5062060;28;19932;-78
2023/12/21 07:56:31;;;;;;;;;;;6.60;99.90;;;;;;5061855;28;19932;-77
2023/12/21 07:59:04;;;;;;;;;;;6.60;99.90;;;;;;5065061;28;19938;-77
2023/12/21 08:01:30;;;;;;;;;;;6.60;99.90;;;;;;5059173;28;19928;-78
2023/12/21 08:03:57;;;;;;;;;;;6.60;99.90;;;;;;5061435;28;19935;-79
2023/12/21 08:06:24;;;;;;;;;;;6.60;99.90;;;;;;5064304;28;19928;-79
2023/12/21 08:08:52;;;;;;;;;;;6.70;99.90;;;;;;5065503;28;20015;-83
2023/12/21 08:11:19;;;;;;;;;;;6.70;99.90;;;;;;5068286;28;19932;-79
2023/12/21 08:13:45;;;;;;;;;;;6.60;99.90;;;;;;5063092;28;20018;-78
2023/12/21 08:16:12;;;;;;;;;;;6.60;99.90;;;;;;5061861;28;19935;-78
2023/12/21 08:18:38;;;;;;;;;;;6.60;99.90;;;;;;5065378;28;19924;-78
2023/12/21 08:21:05;;;;;;;;;;;6.60;99.90;;;;;;5065890;28;19940;-78
2023/12/21 08:23:31;;;;;;;;;;;6.70;99.90;;;;;;5061514;28;19932;-78
2023/12/21 08:25:59;;;;;;;;;;;6.70;99.90;;;;;;5063642;28;20240;-78
2023/12/21 08:28:29;;;;;;;;;;;7.10;99.90;;;;;;5064301;28;19928;-76
2023/12/21 08:30:55;;;;;;;;;;;6.70;99.90;;;;;;5061659;28;19940;-78
2023/12/21 08:33:22;;;;;;;;;;;6.70;99.90;;;;;;5063629;28;19937;-78
2023/12/21 08:35:48;;;;;;;;;;;6.70;99.90;;;;;;5058121;28;19933;-78
2023/12/21 08:38:15;;;;;;;;;;;6.70;99.90;;;;;;5061754;28;19955;-77
2023/12/21 08:40:42;;;;;;;;;;;6.70;99.90;;;;;;5055320;28;19933;-79
2023/12/21 08:43:09;;;;;;;;;;;6.70;99.90;;;;;;5059070;28;19928;-78
2023/12/21 08:45:36;;;;;;;;;;;6.70;99.90;;;;;;5063287;28;19935;-79
2023/12/21 08:48:03;;;;;;;;;;;6.70;99.90;;;;;;5061668;28;19936;-77
2023/12/21 08:50:29;;;;;;;;;;;6.70;99.90;;;;;;5061370;28;19928;-76
2023/12/21 08:52:59;;;;;;;;;;;6.70;99.90;;;;;;5062465;28;19925;-78
2023/12/21 08:55:27;;;;;;;;;;;6.70;99.90;;;;;;5062246;28;20017;-77
2023/12/21 08:57:53;;;;;;;;;;;6.70;99.90;;;;;;5059167;28;20015;-77
2023/12/21 09:00:21;;;;;;;;;;;6.70;99.90;;;;;;5065737;28;19936;-78
2023/12/21 09:02:48;;;;;;;;;;;6.70;99.90;;;;;;5057979;28;19935;-78
2023/12/21 09:05:14;;;;;;;;;;;6.70;99.90;;;;;;5065656;28;19939;-77
2023/12/21 09:07:41;;;;;;;;;;;6.70;99.90;;;;;;5059896;28;20023;-77
2023/12/21 09:10:08;;;;;;;;;;;6.70;99.90;;;;;;5063477;28;19979;-78
2023/12/21 09:12:35;;;;;;;;;;;6.70;99.90;;;;;;5066588;28;19987;-80
2023/12/21 09:15:03;;;;;;;;;;;6.80;99.90;;;;;;5062002;28;19986;-68
2023/12/21 09:17:31;;;;;;;;;;;6.70;99.90;;;;;;5066178;28;19928;-67
2023/12/21 09:19:58;;;;;;;;;;;6.70;99.90;;;;;;5063995;28;19940;-68
2023/12/21 09:22:24;;;;;;;;;;;6.80;99.90;;;;;;5066803;28;19932;-68
2023/12/21 09:24:51;;;;;;;;;;;6.70;99.90;;;;;;5064495;28;20595;-68
2023/12/21 09:27:17;;;;;;;;;;;6.70;99.90;;;;;;5064680;28;19982;-68
2023/12/21 09:29:44;;;;;;;;;;;6.80;99.90;;;;;;5065824;28;19928;-68
2023/12/21 09:32:10;;;;;;;;;;;6.80;99.90;;;;;;5066443;28;19928;-67
2023/12/21 09:34:38;;;;;;;;;;;6.80;99.90;;;;;;5066851;28;19940;-67
2023/12/21 09:37:05;;;;;;;;;;;6.80;99.90;;;;;;5066426;28;20031;-69
2023/12/21 09:39:32;;;;;;;;;;;6.80;99.90;;;;;;5062742;28;19990;-68
2023/12/21 09:42:00;;;;;;;;;;;6.80;99.90;;;;;;5067207;28;19932;-68
2023/12/21 09:44:27;;;;;;;;;;;6.80;99.90;;;;;;5064095;28;20684;-67
2023/12/21 09:46:54;;;;;;;;;;;6.80;99.90;;;;;;5060154;28;19936;-68
2023/12/21 09:49:21;;;;;;;;;;;6.80;99.90;;;;;;5063351;28;19940;-68
2023/12/21 09:51:50;;;;;;;;;;;6.80;99.90;;;;;;5062778;28;19932;-68
2023/12/21 09:54:17;;;;;;;;;;;6.80;99.90;;;;;;5065929;28;20049;-67
2023/12/21 09:56:44;;;;;;;;;;;6.80;99.90;;;;;;5064240;28;20638;-67
2023/12/21 09:59:11;;;;;;;;;;;6.80;99.90;;;;;;5065204;28;20283;-68
2023/12/21 10:01:38;;;;;;;;;;;6.80;99.90;;;;;;5060769;28;19928;-69
2023/12/21 10:04:04;;;;;;;;;;;6.90;99.90;;;;;;5064844;28;19950;-67
2023/12/21 10:06:31;;;;;;;;;;;6.80;99.90;;;;;;5066041;28;20348;-67
2023/12/21 10:08:59;;;;;;;;;;;6.90;99.90;;;;;;5061578;28;19928;-68
2023/12/21 10:11:25;;;;;;;;;;;6.90;99.90;;;;;;5065877;28;19932;-68
2023/12/21 10:13:55;;;;;;;;;;;6.90;99.90;;;;;;5064327;28;20437;-68
2023/12/21 10:16:21;;;;;;;;;;;6.90;99.90;;;;;;5064100;28;19986;-68
2023/12/21 10:18:50;;;;;;;;;;;6.90;99.90;;;;;;5067834;28;19936;-67
2023/12/21 10:21:17;;;;;;;;;;;6.90;99.90;;;;;;5064389;28;19928;-66
2023/12/21 10:23:43;;;;;;;;;;;6.90;99.90;;;;;;5066545;28;20671;-68
2023/12/21 10:26:11;;;;;;;;;;;6.90;99.90;;;;;;5065965;28;19932;-68
2023/12/21 10:28:37;;;;;;;;;;;6.90;99.90;;;;;;5068191;28;19929;-67
2023/12/21 10:31:05;;;;;;;;;;;6.90;99.90;;;;;;5064140;28;19928;-68
2023/12/21 10:33:31;;;;;;;;;;;6.90;99.90;;;;;;5069137;28;20029;-68
2023/12/21 10:35:58;;;;;;;;;;;7.00;99.90;;;;;;5064584;28;19933;-68
2023/12/21 10:38:25;;;;;;;;;;;7.00;99.90;;;;;;5067872;28;20043;-68
2023/12/21 10:40:51;;;;;;;;;;;7.00;99.90;;;;;;5066979;28;20072;-67
2023/12/21 10:43:19;;;;;;;;;;;7.00;99.90;;;;;;5068197;28;19929;-68
2023/12/21 10:45:46;;;;;;;;;;;7.00;99.90;;;;;;5062906;28;20019;-69
2023/12/21 10:48:15;;;;;;;;;;;7.00;99.90;;;;;;5063344;28;19928;-68
2023/12/21 10:50:43;;;;;;;;;;;7.00;99.90;;;;;;5061916;28;19929;-67
2023/12/21 10:53:11;;;;;;;;;;;7.00;99.90;;;;;;5064402;28;19940;-68
2023/12/21 10:55:37;;;;;;;;;;;7.00;99.90;;;;;;5068399;28;19932;-67
2023/12/21 10:58:06;;;;;;;;;;;7.00;99.90;;;;;;5067167;28;19981;-66
2023/12/21 11:00:34;;;;;;;;;;;7.00;99.90;;;;;;5065317;28;19935;-68
2023/12/21 11:03:02;;;;;;;;;;;7.10;99.90;;;;;;5067949;28;20035;-69
2023/12/21 11:05:31;;;;;;;;;;;7.10;99.90;;;;;;5062629;28;19932;-68
2023/12/21 11:08:00;;;;;;;;;;;7.10;99.90;;;;;;5065015;28;19947;-68
2023/12/21 11:10:27;;;;;;;;;;;7.10;99.90;;;;;;5062858;28;19930;-68
2023/12/21 11:12:53;;;;;;;;;;;7.10;99.90;;;;;;5066028;28;19936;-68
2023/12/21 11:15:20;;;;;;;;;;;7.20;99.90;;;;;;5066069;28;19932;-68
2023/12/21 11:17:50;;;;;;;;;;;7.20;99.90;;;;;;5068917;28;19929;-67
2023/12/21 11:20:19;;;;;;;;;;;7.20;99.90;;;;;;5067241;28;20405;-67
2023/12/21 11:22:46;;;;;;;;;;;7.20;99.90;;;;;;5067190;28;19944;-68
2023/12/21 11:25:13;;;;;;;;;;;7.20;99.90;;;;;;5067100;28;20317;-68
2023/12/21 11:27:40;;;;;;;;;;;7.20;99.90;;;;;;5066218;28;19999;-68
2023/12/21 11:30:07;;;;;;;;;;;7.20;99.90;;;;;;5064157;28;19929;-68
2023/12/21 11:32:34;;;;;;;;;;;7.30;99.90;;;;;;5066354;28;19928;-68
2023/12/21 11:35:02;;;;;;;;;;;7.30;99.90;;;;;;5066288;28;19944;-68
2023/12/21 11:37:28;;;;;;;;;;;7.30;99.90;;;;;;5063694;28;20044;-67
2023/12/21 11:39:57;;;;;;;;;;;7.30;99.90;;;;;;5067732;28;19929;-68
2023/12/21 11:42:32;;;;;;;;;;;7.30;99.90;;;;;;5068048;28;19928;-67
2023/12/21 11:45:00;;;;;;;;;;;7.30;99.90;;;;;;5067691;28;19929;-67
2023/12/21 11:47:28;;;;;;;;;;;7.30;99.90;;;;;;5063345;28;19928;-68
2023/12/21 11:50:04;;;;;;;;;;;7.30;99.90;;;;;;5066589;28;19929;-67
2023/12/21 11:52:31;;;;;;;;;;;7.30;99.90;;;;;;5064561;28;19932;-67
2023/12/21 11:54:58;;;;;;;;;;;7.30;99.90;;;;;;5063041;28;20001;-68
2023/12/21 11:57:28;;;;;;;;;;;7.30;99.90;;;;;;5070037;28;19930;-67
2023/12/21 12:00:07;;;;;;;;;;;7.30;99.90;;;;;;5066418;28;19951;-67
2023/12/21 12:02:34;;;;;;;;;;;7.30;99.90;;;;;;5064361;28;19934;-68
2023/12/21 12:05:02;;;;;;;;;;;7.30;99.90;;;;;;5068146;28;20019;-68
2023/12/21 12:07:31;;;;;;;;;;;7.30;99.90;;;;;;5066187;28;19999;-67
2023/12/21 12:09:58;;;;;;;;;;;7.30;99.90;;;;;;5065658;28;19924;-69
2023/12/21 12:12:24;;;;;;;;;;;7.30;99.90;;;;;;5067564;28;19989;-67
2023/12/21 12:14:52;;;;;;;;;;;7.30;99.90;;;;;;5063973;28;19929;-68
2023/12/21 12:17:18;;;;;;;;;;;7.30;99.90;;;;;;5068450;28;19929;-67
2023/12/21 12:19:45;;;;;;;;;;;7.30;99.90;;;;;;5066464;28;19932;-67
2023/12/21 12:22:12;;;;;;;;;;;7.30;99.90;;;;;;5066696;28;19968;-69
2023/12/21 12:24:40;;;;;;;;;;;7.40;99.90;;;;;;5065169;28;20319;-68
2023/12/21 12:27:06;;;;;;;;;;;7.30;99.90;;;;;;5068225;28;20019;-67
2023/12/21 12:29:33;;;;;;;;;;;7.30;99.90;;;;;;5062602;28;20391;-68
2023/12/21 12:32:00;;;;;;;;;;;7.30;99.90;;;;;;5067217;28;19929;-68
2023/12/21 12:34:27;;;;;;;;;;;7.30;99.90;;;;;;5061486;28;20089;-67
2023/12/21 12:36:54;;;;;;;;;;;7.30;99.90;;;;;;5069979;28;19989;-67
2023/12/21 12:39:21;;;;;;;;;;;7.40;99.90;;;;;;5069946;28;20046;-68
2023/12/21 12:41:53;;;;;;;;;;;7.40;99.90;;;;;;5067164;28;19929;-67
2023/12/21 12:44:20;;;;;;;;;;;7.40;99.90;;;;;;5066444;28;20018;-68
2023/12/21 12:46:46;;;;;;;;;;;7.40;99.90;;;;;;5060246;28;20023;-68
2023/12/21 12:49:13;;;;;;;;;;;7.30;99.90;;;;;;5065676;28;19998;-67
2023/12/21 12:51:41;;;;;;;;;;;7.40;99.90;;;;;;5066715;28;19928;-67
2023/12/21 12:54:07;;;;;;;;;;;7.40;99.90;;;;;;5063859;28;19940;-67
2023/12/21 12:56:44;;;;;;;;;;;7.40;99.90;;;;;;5069161;28;20595;-67
2023/12/21 12:59:12;;;;;;;;;;;7.40;99.90;;;;;;5065238;28;19928;-67
2023/12/21 13:01:39;;;;;;;;;;;7.40;99.90;;;;;;5064706;28;19928;-67
2023/12/21 13:04:05;;;;;;;;;;;7.40;99.90;;;;;;5065565;28;19924;-68
2023/12/21 13:06:32;;;;;;;;;;;7.40;99.90;;;;;;5064993;28;19928;-68
2023/12/21 13:08:58;;;;;;;;;;;7.40;99.90;;;;;;5068909;28;19939;-67
2023/12/21 13:11:25;;;;;;;;;;;7.40;99.90;;;;;;5068207;28;20397;-67
2023/12/21 13:13:52;;;;;;;;;;;7.40;99.90;;;;;;5062610;28;19936;-68
2023/12/21 13:16:20;;;;;;;;;;;7.40;99.90;;;;;;5063282;28;20006;-67
2023/12/21 13:18:47;;;;;;;;;;;7.40;99.90;;;;;;5068285;28;19938;-67
2023/12/21 13:21:13;;;;;;;;;;;7.40;99.90;;;;;;5066072;28;19932;-67
2023/12/21 13:23:40;;;;;;;;;;;7.40;99.90;;;;;;5061162;28;19933;-68
2023/12/21 13:26:08;;;;;;;;;;;7.40;99.90;;;;;;5064998;28;19936;-68
2023/12/21 13:28:34;;;;;;;;;;;7.40;99.90;;;;;;5065009;28;19979;-68
2023/12/21 13:31:02;;;;;;;;;;;7.40;99.90;;;;;;5060436;28;19928;-67
2023/12/21 13:33:30;;;;;;;;;;;7.40;99.90;;;;;;5066516;28;19928;-68
2023/12/21 13:35:57;;;;;;;;;;;7.40;99.90;;;;;;5064644;28;19939;-67
2023/12/21 13:38:23;;;;;;;;;;;7.40;99.90;;;;;;5067633;28;19928;-68
2023/12/21 13:40:50;;;;;;;;;;;7.40;99.90;;;;;;5066538;28;20404;-68
2023/12/21 13:43:18;;;;;;;;;;;7.40;99.90;;;;;;5067579;28;19941;-67
2023/12/21 13:45:44;;;;;;;;;;;7.40;99.90;;;;;;5061581;28;20359;-67
2023/12/21 13:48:11;;;;;;;;;;;7.40;99.90;;;;;;5061860;28;19932;-77
2023/12/21 13:50:39;;;;;;;;;;;7.40;99.90;;;;;;5061491;28;19936;-68
2023/12/21 13:53:05;;;;;;;;;;;7.40;99.90;;;;;;5061655;28;19997;-69
2023/12/21 13:55:32;;;;;;;;;;;7.50;99.90;;;;;;5062127;28;19993;-68
2023/12/21 13:57:58;;;;;;;;;;;7.50;99.90;;;;;;5062660;28;19986;-68
2023/12/21 14:00:25;;;;;;;;;;;7.40;99.90;;;;;;5062611;28;19940;-68
2023/12/21 14:02:52;;;;;;;;;;;7.50;99.90;;;;;;5064851;28;19928;-68
2023/12/21 14:05:18;;;;;;;;;;;7.50;99.90;;;;;;5060375;28;19956;-67
2023/12/21 14:07:46;;;;;;;;;;;7.50;99.90;;;;;;5064096;28;19951;-68
2023/12/21 14:10:13;;;;;;;;;;;7.50;99.90;;;;;;5065205;28;19936;-67
2023/12/21 14:12:39;;;;;;;;;;;7.50;99.90;;;;;;5063359;28;20713;-67
2023/12/21 14:15:07;;;;;;;;;;;7.50;99.90;;;;;;5060697;28;19934;-68
2023/12/21 14:17:34;;;;;;;;;;;7.50;99.90;;;;;;5064248;28;20441;-68
2023/12/21 14:20:00;;;;;;;;;;;7.50;99.90;;;;;;5063605;28;19935;-67
2023/12/21 14:22:27;;;;;;;;;;;7.50;99.90;;;;;;5065325;28;19932;-68
2023/12/21 14:24:55;;;;;;;;;;;7.50;99.90;;;;;;5065032;28;19928;-67
2023/12/21 14:27:22;;;;;;;;;;;7.50;99.90;;;;;;5066586;28;20497;-66
2023/12/21 14:29:49;;;;;;;;;;;7.50;99.90;;;;;;5061115;28;19942;-68